Time;durP1;ratioP1;P1;durP2;ratioP2;P2;SDS_P1;SDS_P2;PMS_P1;PMS_P2;Temp;Humidity;BMP_temperature;BMP_pressure;BME280_temperature;BME280_humidity;BME280_pressure;Samples;Min_cycle;Max_cycle;Signal;HPM_P1;HPM_P2
2021/10/22 00:02:15;;;;;;;6.10;1.00;;;;;;;;;;4919104;29;20032;-94
2021/10/22 00:04:41;;;;;;;1.75;0.93;;;;;;;;;;4901076;29;20071;-94
2021/10/22 00:07:07;;;;;;;1.83;0.70;;;;;;;;;;4919202;29;20028;-95
2021/10/22 00:09:33;;;;;;;3.75;1.25;;;;;;;;;;4918565;29;20187;-94
2021/10/22 00:12:02;;;;;;;3.92;0.93;;;;;;;;;;4918208;29;20039;-93
2021/10/22 00:14:28;;;;;;;2.97;0.70;;;;;;;;;;4918308;29;20048;-95
2021/10/22 00:16:54;;;;;;;4.13;0.90;;;;;;;;;;4899563;29;20123;-93
2021/10/22 00:19:20;;;;;;;2.05;1.15;;;;;;;;;;4917842;29;20036;-93
2021/10/22 00:21:46;;;;;;;1.83;0.95;;;;;;;;;;4901315;29;20026;-93
2021/10/22 00:24:13;;;;;;;1.73;0.95;;;;;;;;;;4916433;29;20138;-95
2021/10/22 00:26:39;;;;;;;1.80;1.15;;;;;;;;;;4918396;29;20028;-94
2021/10/22 00:29:05;;;;;;;1.60;1.48;;;;;;;;;;4918625;29;20055;-94
2021/10/22 00:31:31;;;;;;;2.65;1.85;;;;;;;;;;4918436;29;20017;-94
2021/10/22 00:33:58;;;;;;;2.13;1.33;;;;;;;;;;4918293;29;20493;-95
2021/10/22 00:36:24;;;;;;;3.33;1.55;;;;;;;;;;4919009;29;20508;-93
2021/10/22 00:38:50;;;;;;;2.17;1.13;;;;;;;;;;4917985;29;20058;-94
2021/10/22 00:41:18;;;;;;;4.73;1.43;;;;;;;;;;4901667;29;20028;-94
2021/10/22 00:43:44;;;;;;;1.20;1.00;;;;;;;;;;4918760;29;20028;-94
2021/10/22 00:46:10;;;;;;;2.77;0.93;;;;;;;;;;4916362;29;20043;-94
2021/10/22 00:48:37;;;;;;;2.35;1.02;;;;;;;;;;4905690;29;20040;-93
2021/10/22 00:51:04;;;;;;;5.20;1.40;;;;;;;;;;4894142;29;20028;-94
2021/10/22 00:53:30;;;;;;;1.17;0.90;;;;;;;;;;4917117;29;20288;-94
2021/10/22 00:55:56;;;;;;;4.18;1.33;;;;;;;;;;4917954;29;20038;-92
2021/10/22 00:58:22;;;;;;;1.42;1.30;;;;;;;;;;4932796;29;20024;-93
2021/10/22 01:00:49;;;;;;;1.13;0.90;;;;;;;;;;4918089;29;20028;-95
2021/10/22 01:03:15;;;;;;;4.57;1.35;;;;;;;;;;4918411;29;20025;-95
2021/10/22 01:05:42;;;;;;;5.53;1.77;;;;;;;;;;4918239;29;20527;-94
2021/10/22 01:08:10;;;;;;;4.00;1.30;;;;;;;;;;4900798;29;20059;-94
2021/10/22 01:10:39;;;;;;;1.77;0.63;;;;;;;;;;4917864;29;20308;-93
2021/10/22 01:13:06;;;;;;;3.60;1.05;;;;;;;;;;4916938;29;20024;-94
2021/10/22 01:15:32;;;;;;;1.05;0.70;;;;;;;;;;4916718;29;20108;-93
2021/10/22 01:18:00;;;;;;;1.17;1.02;;;;;;;;;;4916743;29;20105;-95
2021/10/22 01:20:26;;;;;;;2.95;0.80;;;;;;;;;;4917953;29;20036;-94
2021/10/22 01:22:53;;;;;;;2.25;1.10;;;;;;;;;;4900755;29;20044;-95
2021/10/22 01:25:21;;;;;;;1.02;0.90;;;;;;;;;;4900688;29;20032;-94
2021/10/22 01:27:48;;;;;;;1.38;0.95;;;;;;;;;;4917386;29;20087;-93
2021/10/22 01:30:17;;;;;;;1.58;1.05;;;;;;;;;;4910394;29;20106;-94
2021/10/22 01:32:43;;;;;;;1.25;1.10;;;;;;;;;;4918413;29;20118;-94
2021/10/22 01:35:10;;;;;;;3.70;1.23;;;;;;;;;;4900434;29;20114;-94
2021/10/22 01:37:37;;;;;;;1.30;1.23;;;;;;;;;;4917339;29;20320;-94
2021/10/22 01:40:03;;;;;;;5.22;3.25;;;;;;;;;;4901492;29;20024;-95
2021/10/22 01:42:29;;;;;;;1.60;1.20;;;;;;;;;;4917435;29;20063;-95
2021/10/22 01:47:59;;;;;;;2.45;1.73;;;;;;;;;;5718156;23;21064;-95
2021/10/22 01:50:26;;;;;;;4.05;1.73;;;;;;;;;;4959776;23;20075;-94
2021/10/22 01:52:52;;;;;;;3.00;2.03;;;;;;;;;;4917422;29;20028;-94
2021/10/22 01:55:18;;;;;;;3.40;1.63;;;;;;;;;;4916695;29;20032;-94
2021/10/22 01:57:44;;;;;;;3.30;1.83;;;;;;;;;;4915621;29;20024;-94
2021/10/22 02:00:10;;;;;;;2.25;1.27;;;;;;;;;;4907877;29;20064;-94
2021/10/22 02:02:36;;;;;;;2.17;1.17;;;;;;;;;;4905876;29;20084;-94
2021/10/22 02:05:03;;;;;;;2.75;1.60;;;;;;;;;;4917123;29;20035;-93
2021/10/22 02:07:29;;;;;;;4.40;1.20;;;;;;;;;;4924556;29;20496;-94
2021/10/22 02:09:55;;;;;;;2.38;0.88;;;;;;;;;;4921006;29;20107;-94
2021/10/22 02:12:21;;;;;;;1.83;0.98;;;;;;;;;;4916537;29;20024;-94
2021/10/22 02:14:47;;;;;;;7.68;0.80;;;;;;;;;;4916582;29;20036;-94
2021/10/22 02:17:13;;;;;;;2.50;1.02;;;;;;;;;;4916713;29;20039;-93
2021/10/22 02:19:40;;;;;;;1.83;0.88;;;;;;;;;;4882177;29;20109;-95
2021/10/22 02:22:06;;;;;;;2.30;1.00;;;;;;;;;;4913675;29;20032;-94
2021/10/22 02:24:32;;;;;;;1.48;0.82;;;;;;;;;;4915719;29;20032;-94
2021/10/22 02:26:58;;;;;;;2.38;0.93;;;;;;;;;;4916892;29;20035;-94
2021/10/22 02:29:24;;;;;;;3.58;1.30;;;;;;;;;;4927774;29;20044;-94
2021/10/22 02:31:50;;;;;;;2.40;0.95;;;;;;;;;;4911159;29;20032;-95
2021/10/22 02:34:16;;;;;;;2.45;0.55;;;;;;;;;;4916241;29;20044;-93
2021/10/22 02:36:42;;;;;;;3.42;1.58;;;;;;;;;;4916231;29;20016;-95
2021/10/22 02:39:08;;;;;;;3.40;1.60;;;;;;;;;;4916627;29;20062;-95
2021/10/22 02:41:35;;;;;;;6.40;1.77;;;;;;;;;;4915326;29;20032;-95
2021/10/22 02:44:01;;;;;;;2.20;1.30;;;;;;;;;;4900128;29;20072;-93
2021/10/22 02:46:27;;;;;;;4.47;1.13;;;;;;;;;;4899809;29;20032;-94
2021/10/22 02:48:53;;;;;;;1.70;1.15;;;;;;;;;;4915119;29;20453;-93
2021/10/22 02:51:19;;;;;;;4.85;2.35;;;;;;;;;;4915088;29;20048;-94
2021/10/22 02:53:45;;;;;;;1.83;1.40;;;;;;;;;;4916441;29;20056;-93
2021/10/22 02:56:11;;;;;;;3.15;1.02;;;;;;;;;;4916836;29;20028;-94
2021/10/22 02:58:37;;;;;;;1.88;1.00;;;;;;;;;;4916603;29;20099;-94
2021/10/22 03:01:05;;;;;;;5.20;1.40;;;;;;;;;;4899684;29;20209;-95
2021/10/22 03:03:31;;;;;;;3.40;1.13;;;;;;;;;;4919433;29;20110;-94
2021/10/22 03:05:57;;;;;;;2.67;1.67;;;;;;;;;;4928342;29;20032;-94
2021/10/22 03:08:23;;;;;;;1.42;1.08;;;;;;;;;;4899294;29;20036;-94
2021/10/22 03:10:49;;;;;;;2.50;1.52;;;;;;;;;;4912198;29;20048;-93
2021/10/22 03:13:15;;;;;;;10.77;2.63;;;;;;;;;;4902012;29;20076;-94
2021/10/22 03:15:41;;;;;;;2.25;1.08;;;;;;;;;;4909508;29;20032;-94
2021/10/22 03:18:07;;;;;;;0.93;0.80;;;;;;;;;;4918022;29;20024;-94
2021/10/22 03:20:35;;;;;;;3.10;1.27;;;;;;;;;;4919640;29;20083;-94
2021/10/22 03:23:01;;;;;;;1.30;1.00;;;;;;;;;;4904338;29;20028;-94
2021/10/22 03:25:27;;;;;;;2.63;1.02;;;;;;;;;;4917938;29;20036;-93
2021/10/22 03:27:53;;;;;;;3.58;0.80;;;;;;;;;;4919255;29;20031;-94
2021/10/22 03:30:19;;;;;;;0.80;0.80;;;;;;;;;;4920378;29;20531;-95
2021/10/22 03:32:45;;;;;;;6.80;1.00;;;;;;;;;;4905013;29;20032;-95
2021/10/22 03:35:11;;;;;;;1.15;1.05;;;;;;;;;;4927153;29;20036;-94
2021/10/22 03:37:40;;;;;;;3.28;1.23;;;;;;;;;;4909000;29;20033;-96
2021/10/22 03:40:07;;;;;;;3.58;1.20;;;;;;;;;;4910733;29;20055;-96
2021/10/22 03:42:40;;;;;;;1.05;0.85;;;;;;;;;;4927007;29;20031;-96
2021/10/22 03:45:07;;;;;;;1.88;1.08;;;;;;;;;;4927859;29;20040;-95
2021/10/22 03:47:33;;;;;;;2.63;1.30;;;;;;;;;;4912441;29;20048;-95
2021/10/22 03:50:04;;;;;;;1.55;1.08;;;;;;;;;;4927083;29;20052;-95
2021/10/22 03:52:33;;;;;;;7.25;2.38;;;;;;;;;;4927875;29;20032;-95
2021/10/22 03:55:01;;;;;;;11.57;1.35;;;;;;;;;;4930009;29;20036;-95
2021/10/22 03:57:29;;;;;;;0.82;0.60;;;;;;;;;;4928902;29;20032;-95
2021/10/22 04:00:00;;;;;;;0.82;0.82;;;;;;;;;;4940409;29;20037;-95
2021/10/22 04:02:26;;;;;;;1.75;1.02;;;;;;;;;;4926619;29;20028;-95
2021/10/22 04:04:52;;;;;;;1.00;0.90;;;;;;;;;;4908877;29;20096;-95
2021/10/22 04:07:21;;;;;;;8.75;1.05;;;;;;;;;;4925437;29;20111;-96
2021/10/22 04:09:47;;;;;;;1.27;0.75;;;;;;;;;;4917971;29;20040;-95
2021/10/22 04:12:14;;;;;;;1.08;0.98;;;;;;;;;;4898343;29;20037;-94
2021/10/22 04:14:41;;;;;;;3.63;1.58;;;;;;;;;;4926068;29;20028;-95
2021/10/22 04:17:08;;;;;;;4.28;1.25;;;;;;;;;;4925031;29;20036;-96
2021/10/22 04:19:34;;;;;;;1.25;1.02;;;;;;;;;;4905575;29;20076;-95
2021/10/22 04:22:02;;;;;;;2.17;0.95;;;;;;;;;;4920629;29;20039;-95
2021/10/22 04:24:30;;;;;;;5.75;1.55;;;;;;;;;;4924677;29;20028;-96
2021/10/22 04:26:57;;;;;;;;;;;14.40;74.80;;;;;;4924297;29;20096;-94
2021/10/22 04:29:23;;;;;;;2.60;1.27;;;;;;;;;;4908671;29;19919;-95
2021/10/22 04:31:49;;;;;;;7.35;1.20;;;;;;;;;;4923894;29;20040;-95
2021/10/22 04:34:15;;;;;;;2.33;1.35;;;;;;;;;;4895620;29;20052;-94
2021/10/22 04:36:43;;;;;;;0.55;0.52;;;;;;;;;;4924409;29;20033;-95
2021/10/22 04:41:54;;;;;;;1.73;1.20;;;;;;;;;;4923963;29;20042;-96
2021/10/22 04:44:21;;;;;;;4.73;0.83;;;;;;;;;;4924630;29;20047;-95
2021/10/22 04:46:47;;;;;;;4.13;1.50;;;;;;;;;;4924420;29;20445;-95
2021/10/22 04:49:13;;;;;;;4.50;1.38;;;;;;;;;;4925104;29;20059;-95
2021/10/22 04:51:39;;;;;;;2.80;0.98;;;;;;;;;;4920148;29;20048;-94
2021/10/22 04:54:05;;;;;;;2.35;0.95;;;;;;;;;;4913223;29;20028;-95
2021/10/22 04:56:31;;;;;;;1.77;1.02;;;;;;;;;;4908133;29;20028;-95
2021/10/22 04:58:59;;;;;;;6.93;1.75;;;;;;;;;;4925076;29;20404;-95
2021/10/22 05:01:27;;;;;;;1.58;1.17;;;;;;;;;;4924963;29;20045;-95
2021/10/22 05:03:53;;;;;;;4.93;1.27;;;;;;;;;;4912759;29;20035;-95
2021/10/22 05:06:20;;;;;;;1.47;0.97;;;;;;;;;;4923775;29;20093;-96
2021/10/22 05:08:47;;;;;;;2.97;0.90;;;;;;;;;;4931170;29;20056;-95
2021/10/22 05:11:13;;;;;;;3.25;1.02;;;;;;;;;;4924282;29;20024;-95
2021/10/22 05:13:39;;;;;;;1.13;1.02;;;;;;;;;;4907750;29;20152;-94
2021/10/22 05:16:05;;;;;;;1.45;1.05;;;;;;;;;;4919389;29;20183;-94
2021/10/22 05:18:32;;;;;;;1.73;1.25;;;;;;;;;;4915846;29;20020;-95
2021/10/22 05:20:58;;;;;;;2.17;1.02;;;;;;;;;;4918437;29;20060;-94
2021/10/22 05:23:24;;;;;;;1.55;1.15;;;;;;;;;;4902759;29;20464;-96
2021/10/22 05:25:50;;;;;;;2.33;1.25;;;;;;;;;;4905984;29;20477;-95
2021/10/22 05:28:16;;;;;;;1.33;1.00;;;;;;;;;;4912008;29;20099;-94
2021/10/22 05:30:50;;;;;;;1.98;1.30;;;;;;;;;;4922059;29;20040;-96
2021/10/22 05:33:21;;;;;;;0.98;0.93;;;;;;;;;;4907967;29;20125;-96
2021/10/22 05:35:47;;;;;;;2.17;1.00;;;;;;;;;;4876739;29;20036;-95
2021/10/22 05:38:15;;;;;;;2.25;1.30;;;;;;;;;;4916853;29;20028;-95
2021/10/22 05:40:45;;;;;;;2.03;1.45;;;;;;;;;;4908427;29;20035;-95
2021/10/22 05:43:13;;;;;;;4.88;2.08;;;;;;;;;;4928303;29;20032;-96
2021/10/22 05:45:41;;;;;;;2.08;1.88;;;;;;;;;;4909671;29;20032;-96
2021/10/22 05:48:11;;;;;;;7.10;1.30;;;;;;;;;;4922984;29;20416;-95
2021/10/22 05:50:41;;;;;;;2.00;1.70;;;;;;;;;;4926412;29;20055;-96
2021/10/22 05:53:07;;;;;;;2.05;1.10;;;;;;;;;;4921427;29;20024;-92
2021/10/22 05:55:33;;;;;;;1.85;1.05;;;;;;;;;;4909223;29;20092;-93
2021/10/22 05:57:59;;;;;;;0.75;0.75;;;;;;;;;;4896639;29;20034;-93
2021/10/22 06:00:26;;;;;;;2.67;1.88;;;;;;;;;;4899406;29;20047;-91
2021/10/22 06:02:53;;;;;;;4.75;0.95;;;;;;;;;;4916546;29;20020;-92
2021/10/22 06:05:19;;;;;;;2.72;1.23;;;;;;;;;;4898709;29;20457;-93
2021/10/22 06:07:45;;;;;;;5.65;1.80;;;;;;;;;;4898823;29;20043;-92
2021/10/22 06:10:12;;;;;;;10.60;1.60;;;;;;;;;;4899283;29;20067;-94
2021/10/22 06:12:38;;;;;;;2.25;1.13;;;;;;;;;;4915741;29;20493;-93
2021/10/22 06:15:04;;;;;;;1.15;0.82;;;;;;;;;;4899082;29;20039;-94
2021/10/22 06:17:30;;;;;;;1.58;0.80;;;;;;;;;;4915986;29;20028;-93
2021/10/22 06:20:00;;;;;;;1.83;1.42;;;;;;;;;;4916251;29;20036;-92
2021/10/22 06:25:38;;;;;;;3.50;1.00;;;;;;;;;;4858302;29;20502;-95
2021/10/22 06:28:05;;;;;;;2.28;1.50;;;;;;;;;;4857233;29;20610;-94
2021/10/22 06:30:31;;;;;;;6.70;1.27;;;;;;;;;;4856273;29;20041;-92
2021/10/22 06:32:57;;;;;;;3.70;2.28;;;;;;;;;;4842978;29;20041;-93
2021/10/22 06:35:24;;;;;;;2.25;1.67;;;;;;;;;;4857241;29;20041;-92
2021/10/22 06:37:50;;;;;;;1.50;1.33;;;;;;;;;;4857625;29;20033;-92
2021/10/22 06:40:16;;;;;;;1.63;1.52;;;;;;;;;;4842136;29;20033;-92
2021/10/22 06:42:43;;;;;;;1.95;1.40;;;;;;;;;;4860826;29;20506;-92
2021/10/22 06:45:10;;;;;;;1.95;1.23;;;;;;;;;;4857295;29;20487;-92
2021/10/22 06:47:36;;;;;;;2.20;2.00;;;;;;;;;;4840150;29;20041;-92
2021/10/22 06:50:04;;;;;;;5.18;2.70;;;;;;;;;;4857660;29;20061;-91
2021/10/22 06:52:29;;;;;;;;;;;14.60;72.80;;;;;;4860084;29;20044;-92
2021/10/22 06:54:56;;;;;;;7.18;1.88;;;;;;;;;;4891435;29;19915;-95
2021/10/22 06:57:23;;;;;;;2.65;1.70;;;;;;;;;;4909911;29;20036;-93
2021/10/22 06:59:49;;;;;;;2.83;1.77;;;;;;;;;;4929846;29;20488;-93
2021/10/22 07:02:15;;;;;;;5.55;2.13;;;;;;;;;;4917761;29;20031;-94
2021/10/22 07:04:48;;;;;;;2.25;1.67;;;;;;;;;;4901064;29;20379;-92
2021/10/22 07:07:14;;;;;;;2.35;1.30;;;;;;;;;;4884360;29;20033;-92
2021/10/22 07:09:41;;;;;;;4.78;1.55;;;;;;;;;;4912051;29;20044;-92
2021/10/22 07:12:07;;;;;;;3.33;1.35;;;;;;;;;;4919067;29;20032;-91
2021/10/22 07:14:35;;;;;;;5.50;1.73;;;;;;;;;;4917968;29;20040;-94
2021/10/22 07:17:01;;;;;;;1.27;1.10;;;;;;;;;;4919597;29;20082;-94
2021/10/22 07:19:27;;;;;;;3.40;2.40;;;;;;;;;;4885142;29;20143;-91
2021/10/22 07:21:59;;;;;;;2.53;1.45;;;;;;;;;;4912026;29;20316;-93
2021/10/22 07:24:25;;;;;;;5.20;1.77;;;;;;;;;;4918863;29;20155;-92
2021/10/22 07:26:51;;;;;;;3.33;2.42;;;;;;;;;;4919136;29;20028;-95
2021/10/22 07:29:17;;;;;;;5.05;2.63;;;;;;;;;;4919030;29;20044;-95
2021/10/22 07:31:43;;;;;;;3.50;2.38;;;;;;;;;;4917909;29;20028;-95
2021/10/22 07:34:14;;;;;;;3.47;1.83;;;;;;;;;;4887785;29;20044;-92
2021/10/22 07:36:40;;;;;;;4.00;1.40;;;;;;;;;;4903736;29;20028;-93
2021/10/22 07:39:06;;;;;;;2.13;1.30;;;;;;;;;;4917863;29;20040;-93
2021/10/22 07:41:33;;;;;;;2.50;1.77;;;;;;;;;;4918223;29;20846;-94
2021/10/22 07:43:59;;;;;;;0.98;0.88;;;;;;;;;;4918809;29;20043;-92
2021/10/22 07:46:25;;;;;;;6.43;1.27;;;;;;;;;;4918373;29;20100;-92
2021/10/22 07:48:51;;;;;;;2.20;1.02;;;;;;;;;;4910607;29;20055;-90
2021/10/22 07:51:17;;;;;;;1.10;1.00;;;;;;;;;;4917384;29;20074;-92
2021/10/22 07:53:43;;;;;;;1.50;1.05;;;;;;;;;;4919251;29;20032;-92
2021/10/22 07:56:10;;;;;;;1.00;0.90;;;;;;;;;;4917456;29;20028;-93
2021/10/22 07:58:36;;;;;;;5.47;0.80;;;;;;;;;;4918231;29;20508;-91
2021/10/22 08:01:03;;;;;;;1.60;0.80;;;;;;;;;;4918979;29;20070;-92
2021/10/22 08:03:39;;;;;;;;;;;;;;;;;;;;;
2021/10/22 08:06:07;;;;;;;1.02;0.75;;;;;;;;;;4907811;29;20032;-92
2021/10/22 08:08:33;;;;;;;;;;;;;;;;;;4917541;29;20067;-95
2021/10/22 08:10:59;;;;;;;0.88;0.80;;;;;;;;;;4917815;29;19957;-94
2021/10/22 08:13:25;;;;;;;1.23;0.80;;;;;;;;;;4917831;29;20032;-91
2021/10/22 08:15:51;;;;;;;1.15;1.05;;;;;;;;;;4917919;29;20032;-91
2021/10/22 08:18:17;;;;;;;1.42;0.50;;;;;;;;;;4918072;29;20035;-91
2021/10/22 08:20:58;;;;;;;2.88;0.43;;;;;;;;;;4917802;29;20516;-90
2021/10/22 08:23:24;;;;;;;0.52;0.47;;;;;;;;;;4917293;29;20035;-90
2021/10/22 08:25:50;;;;;;;1.05;0.35;;;;;;;;;;4917715;29;20069;-92
2021/10/22 08:28:22;;;;;;;0.45;0.40;;;;;;;;;;4918056;29;20127;-94
2021/10/22 08:30:56;;;;;;;1.20;0.57;;;;;;;;;;4919212;29;20723;-94
2021/10/22 08:33:25;;;;;;;1.25;0.43;;;;;;;;;;4900459;29;20024;-92
2021/10/22 08:35:58;;;;;;;1.40;0.50;;;;;;;;;;4916820;29;20036;-94
2021/10/22 08:38:25;;;;;;;0.40;0.40;;;;;;;;;;4901289;29;20107;-91
2021/10/22 08:40:53;;;;;;;1.23;0.70;;;;;;;;;;4918645;29;20039;-91
2021/10/22 08:43:31;;;;;;;0.30;0.20;;;;;;;;;;4897473;29;20040;-94
2021/10/22 08:45:59;;;;;;;2.03;0.40;;;;;;;;;;4914043;29;20051;-95
2021/10/22 08:48:26;;;;;;;0.88;0.45;;;;;;;;;;4913398;29;20135;-95
2021/10/22 08:50:56;;;;;;;0.82;0.35;;;;;;;;;;4917246;29;20063;-93
2021/10/22 08:53:29;;;;;;;1.75;0.28;;;;;;;;;;4918296;29;20024;-93
2021/10/22 08:55:55;;;;;;;4.00;0.38;;;;;;;;;;4916619;29;20035;-94
2021/10/22 08:58:21;;;;;;;1.00;0.50;;;;;;;;;;4919277;29;20020;-92
2021/10/22 09:00:52;;;;;;;4.28;0.65;;;;;;;;;;4923160;29;20067;-94
2021/10/22 09:03:21;;;;;;;2.10;1.23;;;;;;;;;;4916320;29;20212;-92
2021/10/22 09:05:57;;;;;;;0.88;0.50;;;;;;;;;;4916682;29;20449;-92
2021/10/22 09:08:37;;;;;;;0.65;0.47;;;;;;;;;;4902007;29;20047;-95
2021/10/22 09:11:22;;;;;;;1.10;0.30;;;;;;;;;;4921379;29;20032;-93
2021/10/22 09:14:03;;;;;;;0.20;0.20;;;;;;;;;;4900694;29;20043;-94
2021/10/22 09:16:29;;;;;;;0.75;0.47;;;;;;;;;;4917817;29;20036;-94
2021/10/22 09:19:01;;;;;;;0.40;0.38;;;;;;;;;;4919899;29;20079;-94
2021/10/22 09:21:47;;;;;;;0.28;0.28;;;;;;;;;;4897022;29;20417;-95
2021/10/22 09:27:47;;;;;;;0.65;0.40;;;;;;;;;;4909745;29;20112;-93
2021/10/22 09:30:32;;;;;;;1.88;0.60;;;;;;;;;;4905165;29;20056;-93
2021/10/22 09:36:03;;;;;;;10.85;1.95;;;;;;;;;;4841759;29;20099;-93
2021/10/22 09:38:32;;;;;;;0.93;0.50;;;;;;;;;;4840653;29;20499;-91
2021/10/22 09:41:04;;;;;;;1.40;0.82;;;;;;;;;;4840602;29;20042;-93
2021/10/22 09:43:41;;;;;;;0.55;0.40;;;;;;;;;;4843368;29;20108;-94
2021/10/22 09:46:17;;;;;;;;;;;22.10;41.60;;;;;;4840731;29;20053;-92
2021/10/22 09:48:47;;;;;;;1.02;0.40;;;;;;;;;;4840016;29;19912;-93
2021/10/22 09:51:24;;;;;;;0.65;0.55;;;;;;;;;;4839421;29;20062;-91
2021/10/22 09:53:50;;;;;;;1.75;0.88;;;;;;;;;;4824558;29;20140;-93
2021/10/22 09:56:43;;;;;;;1.98;0.88;;;;;;;;;;4839800;29;20034;-94
2021/10/22 09:59:10;;;;;;;0.77;0.75;;;;;;;;;;4782071;30;20409;-93
2021/10/22 10:01:39;;;;;;;2.80;0.55;;;;;;;;;;4767705;30;20698;-92
2021/10/22 10:04:21;;;;;;;0.90;0.55;;;;;;;;;;4756538;30;20513;-94
2021/10/22 10:07:27;;;;;;;0.70;0.65;;;;;;;;;;4766850;30;20048;-94
2021/10/22 10:10:16;;;;;;;0.85;0.50;;;;;;;;;;4737559;30;20056;-93
2021/10/22 10:12:53;;;;;;;0.95;0.50;;;;;;;;;;4759130;30;20430;-94
2021/10/22 10:15:18;;;;;;;;;;;18.20;48.20;;;;;;4785473;29;20536;-93
2021/10/22 10:18:17;;;;;;;;;;;;;;;;;;;;;
2021/10/22 10:21:12;;;;;;;1.13;0.70;;;;;;;;;;4785084;30;20039;-94
2021/10/22 10:23:41;;;;;;;0.63;0.55;;;;;;;;;;4767151;30;20051;-93
2021/10/22 10:26:21;;;;;;;1.30;0.77;;;;;;;;;;4767157;30;20027;-93
2021/10/22 10:29:02;;;;;;;0.85;0.57;;;;;;;;;;4784604;30;20130;-94
2021/10/22 10:32:20;;;;;;;2.22;1.00;;;;;;;;;;4784442;29;20453;-94
2021/10/22 10:35:36;;;;;;;2.63;0.63;;;;;;;;;;4765786;29;20044;-93
2021/10/22 10:44:32;;;;;;;4.13;0.70;;;;;;;;;;4693778;30;20133;-85
2021/10/22 10:46:58;;;;;;;1.65;0.77;;;;;;;;;;4737744;30;20044;-84
2021/10/22 10:49:49;;;;;;;4.60;1.00;;;19.40;47.00;;;;;;4761719;29;20116;-84
2021/10/22 10:52:39;;;;;;;2.30;0.55;;;19.30;47.10;;;;;;4803197;29;20813;-83
2021/10/22 10:55:17;;;;;;;0.80;0.50;;;19.10;46.40;;;;;;4798156;29;20464;-85
2021/10/22 10:57:51;;;;;;;6.30;1.77;;;;;;;;;;4796927;29;20052;-93
2021/10/22 11:00:21;;;;;;;0.52;0.52;;;;;;;;;;4803469;29;20536;-94
2021/10/22 11:03:03;;;;;;;1.00;0.63;;;;;;;;;;4801223;29;20038;-86
2021/10/22 11:05:44;;;;;;;0.93;0.60;;;;;;;;;;4799128;29;20054;-93
2021/10/22 11:08:17;;;;;;;3.22;0.90;;;;;;;;;;4799975;29;20134;-92
2021/10/22 11:11:11;;;;;;;0.85;0.50;;;;;;;;;;4788229;29;20042;-92
2021/10/22 11:13:44;;;;;;;1.02;0.70;;;;;;;;;;4802408;29;20043;-91
2021/10/22 11:16:10;;;;;;;2.00;0.50;;;;;;;;;;4802116;29;20065;-92
2021/10/22 11:18:39;;;;;;;0.50;0.50;;;;;;;;;;4803254;29;20058;-89
2021/10/22 11:21:05;;;;;;;2.28;0.57;;;;;;;;;;4879942;29;20035;-91
2021/10/22 11:23:36;;;;;;;1.08;0.90;;;;;;;;;;4878682;29;20029;-92
2021/10/22 11:26:03;;;;;;;5.90;1.27;;;;;;;;;;4877158;29;20033;-91
2021/10/22 11:28:32;;;;;;;0.70;0.55;;;;;;;;;;4896983;29;20033;-92
2021/10/22 11:30:58;;;;;;;2.10;0.80;;;;;;;;;;4895620;29;20124;-94
2021/10/22 11:33:27;;;;;;;2.83;1.27;;;;;;;;;;4895821;29;20128;-92
2021/10/22 11:36:09;;;;;;;0.45;0.45;;;;;;;;;;4897667;29;20044;-94
2021/10/22 11:38:35;;;;;;;0.80;0.40;;;;;;;;;;4899576;29;20032;-92
2021/10/22 11:41:13;;;;;;;0.50;0.50;;;;;;;;;;4900470;29;20032;-93
2021/10/22 11:43:40;;;;;;;1.15;0.50;;;;;;;;;;4899674;29;20115;-88
2021/10/22 11:46:20;;;;;;;0.35;0.30;;;19.30;32.50;;;;;;4897771;29;20529;-88
2021/10/22 11:48:52;;;;;;;0.38;0.20;;;19.30;33.40;;;;;;4876814;29;20068;-91
2021/10/22 11:51:18;;;;;;;0.20;0.20;;;;;;;;;;4887473;29;20056;-87
2021/10/22 11:53:45;;;;;;;0.20;0.20;;;19.50;31.10;;;;;;4884244;29;20032;-88
2021/10/22 11:56:11;;;;;;;0.30;0.20;;;;;;;;;;4865492;29;20025;-87
2021/10/22 11:58:38;;;;;;;0.20;0.20;;;;;;;;;;4904177;29;20024;-88
2021/10/22 12:01:04;;;;;;;0.20;0.20;;;;;;;;;;4901567;29;20120;-88
2021/10/22 12:03:37;;;;;;;0.32;0.30;;;19.70;30.80;;;;;;4895188;29;20028;-87
2021/10/22 12:06:03;;;;;;;0.45;0.40;;;;;;;;;;4895445;29;20039;-86
2021/10/22 12:08:35;;;;;;;0.25;0.25;;;;;;;;;;4894861;29;20045;-86
2021/10/22 12:11:02;;;;;;;1.02;0.57;;;19.80;32.50;;;;;;4880106;29;20036;-88
2021/10/22 12:13:32;;;;;;;1.00;0.40;;;19.90;32.30;;;;;;4876204;29;20040;-87
2021/10/22 12:16:11;;;;;;;1.55;0.28;;;20.00;34.40;;;;;;4889070;29;20036;-87
2021/10/22 12:18:43;;;;;;;0.20;0.20;;;20.00;35.20;;;;;;4887515;29;20847;-86
2021/10/22 12:21:09;;;;;;;0.47;0.38;;;;;;;;;;4894899;29;20063;-85
2021/10/22 12:23:39;;;;;;;0.68;0.30;;;19.60;34.30;;;;;;4879824;29;20032;-86
2021/10/22 12:26:25;;;;;;;0.45;0.28;;;19.70;32.40;;;;;;4891586;29;20043;-82
2021/10/22 12:29:03;;;;;;;0.35;0.35;;;19.70;33.00;;;;;;4893711;29;20049;-82
2021/10/22 12:31:31;;;;;;;0.60;0.38;;;19.50;33.90;;;;;;4893884;29;20040;-83
2021/10/22 12:34:05;;;;;;;;;;;19.60;31.60;;;;;;4888185;29;20045;-84
2021/10/22 12:36:32;;;;;;;0.28;0.28;;;;;;;;;;4886140;29;19918;-86
2021/10/22 12:38:58;;;;;;;0.20;0.20;;;;;;;;;;4893284;29;20456;-86
2021/10/22 12:41:27;;;;;;;0.40;0.40;;;;;;;;;;4879145;29;20033;-85
2021/10/22 12:44:12;;;;;;;1.05;0.68;;;19.30;31.90;;;;;;4895388;29;20039;-85
2021/10/22 12:46:54;;;;;;;0.20;0.20;;;19.30;31.20;;;;;;4893525;29;20044;-83
2021/10/22 12:49:27;;;;;;;1.08;0.50;;;19.30;32.10;;;;;;4895906;29;20036;-84
2021/10/22 12:52:01;;;;;;;0.20;0.20;;;19.30;31.80;;;;;;4894584;29;20100;-84
2021/10/22 12:54:28;;;;;;;0.30;0.30;;;;;;;;;;4892158;29;20044;-85
2021/10/22 12:56:59;;;;;;;0.30;0.30;;;19.10;26.80;;;;;;4880870;29;20562;-85
2021/10/22 12:59:29;;;;;;;0.20;0.20;;;;;;;;;;4893790;29;20037;-85
2021/10/22 13:01:55;;;;;;;0.20;0.20;;;;;;;;;;4894853;29;20056;-83
2021/10/22 13:04:22;;;;;;;0.20;0.20;;;;;;;;;;4893772;29;20044;-85
2021/10/22 13:15:20;;;;;;;0.90;0.20;;;18.60;26.90;;;;;;4880261;29;20044;-91
2021/10/22 13:22:48;;;;;;;0.73;0.38;;;;;;;;;;4882574;29;20032;-86
2021/10/22 13:25:14;;;;;;;0.40;0.40;;;;;;;;;;4882900;29;20033;-85
2021/10/22 13:27:40;;;;;;;0.30;0.30;;;;;;;;;;4886303;29;20040;-86
2021/10/22 13:30:13;;;;;;;0.30;0.30;;;17.90;26.30;;;;;;4893816;29;20040;-82
2021/10/22 13:32:40;;;;;;;3.15;0.30;;;17.80;28.00;;;;;;4861583;29;20028;-85
2021/10/22 13:35:07;;;;;;;0.43;0.43;;;;;;;;;;4876092;29;20175;-85
2021/10/22 13:37:34;;;;;;;0.25;0.25;;;;;;;;;;4892744;29;20040;-84
2021/10/22 13:40:00;;;;;;;0.20;0.20;;;;;;;;;;4893392;29;20067;-86
2021/10/22 13:42:26;;;;;;;0.40;0.22;;;;;;;;;;4891471;29;20505;-86
2021/10/22 13:44:52;;;;;;;0.30;0.30;;;;;;;;;;4880240;29;20032;-86
2021/10/22 13:47:18;;;;;;;1.55;0.65;;;;;;;;;;4892939;29;20032;-86
2021/10/22 13:49:44;;;;;;;0.57;0.47;;;;;;;;;;4895605;29;20049;-86
2021/10/22 13:52:10;;;;;;;0.32;0.32;;;;;;;;;;4905038;29;20398;-86
2021/10/22 13:54:36;;;;;;;0.90;0.60;;;;;;;;;;4903117;29;20036;-87
2021/10/22 13:57:02;;;;;;;0.38;0.30;;;;;;;;;;4911455;29;20024;-87
2021/10/22 13:59:29;;;;;;;0.20;0.20;;;;;;;;;;4911993;29;20043;-86
2021/10/22 14:01:55;;;;;;;0.70;0.50;;;;;;;;;;4912568;29;20020;-86
2021/10/22 14:04:21;;;;;;;0.40;0.40;;;;;;;;;;4910749;29;20724;-86
2021/10/22 14:06:47;;;;;;;0.65;0.38;;;;;;;;;;4912136;29;20107;-83
2021/10/22 14:09:13;;;;;;;1.27;0.50;;;;;;;;;;4911213;29;20050;-87
2021/10/22 14:11:51;;;;;;;0.52;0.30;;;;;;;;;;4910811;29;20412;-85
2021/10/22 14:14:43;;;;;;;1.13;0.50;;;;;;;;;;4908966;29;20408;-84
2021/10/22 14:19:55;;;;;;;1.10;0.47;;;;;;;;;;4911292;29;20040;-85
2021/10/22 14:30:34;;;;;;;1.10;0.60;;;;;;;;;;4901104;29;20543;-84
2021/10/22 14:33:00;;;;;;;0.40;0.40;;;;;;;;;;4898811;29;20024;-84
2021/10/22 14:35:26;;;;;;;0.82;0.80;;;;;;;;;;4911108;29;20040;-84
2021/10/22 14:37:52;;;;;;;0.60;0.50;;;;;;;;;;4910568;29;20036;-84
2021/10/22 14:40:20;;;;;;;0.30;0.30;;;;;;;;;;4910407;29;20638;-86
2021/10/22 14:42:46;;;;;;;0.40;0.40;;;;;;;;;;4907294;29;20530;-84
2021/10/22 14:46:02;;;;;;;2.88;0.47;;;;;;;;;;4900537;29;20036;-84
2021/10/22 14:48:07;;;;;;;0.90;0.45;;;;;;;;;;4913990;29;20036;-84
2021/10/22 14:50:37;;;;;;;0.30;0.30;;;;;;;;;;4911218;29;20052;-85
2021/10/22 14:55:44;;;;;;;0.20;0.20;;;;;;;;;;4899440;29;20521;-83
2021/10/22 14:58:11;;;;;;;0.50;0.30;;;;;;;;;;4904152;29;20099;-84
2021/10/22 15:00:40;;;;;;;0.30;0.30;;;16.80;31.60;;;;;;4889200;29;20032;-85
2021/10/22 15:03:07;;;;;;;4.68;0.50;;;;;;;;;;4899687;29;20036;-84
2021/10/22 15:05:34;;;;;;;0.98;0.98;;;16.70;31.50;;;;;;4893778;29;20032;-84
2021/10/22 15:08:00;;;;;;;0.75;0.70;;;;;;;;;;4881455;29;20465;-84
2021/10/22 15:10:26;;;;;;;0.30;0.30;;;16.70;32.10;;;;;;4898411;29;20156;-84
2021/10/22 15:12:52;;;;;;;0.38;0.38;;;;;;;;;;4900574;29;20037;-84
2021/10/22 15:15:18;;;;;;;4.63;1.73;;;;;;;;;;4903051;29;20502;-84
2021/10/22 15:17:44;;;;;;;0.40;0.40;;;;;;;;;;4913114;29;20028;-84
2021/10/22 15:20:10;;;;;;;0.75;0.60;;;;;;;;;;4914450;29;20123;-84
2021/10/22 15:22:36;;;;;;;1.48;0.70;;;;;;;;;;4910759;29;20032;-93
2021/10/22 15:25:03;;;;;;;0.40;0.40;;;;;;;;;;4913822;29;20024;-93
2021/10/22 15:27:29;;;;;;;0.60;0.60;;;;;;;;;;4916682;29;20038;-93
2021/10/22 15:29:55;;;;;;;1.55;1.15;;;;;;;;;;4915618;29;20048;-92
2021/10/22 15:32:22;;;;;;;2.38;0.50;;;;;;;;;;4912734;29;20114;-92
2021/10/22 15:34:50;;;;;;;1.65;0.50;;;;;;;;;;4918149;29;20020;-93
2021/10/22 15:37:17;;;;;;;0.50;0.40;;;;;;;;;;4915950;29;20024;-94